KHTS METAR and TAF | Updated Today

KHTS METAR

Tri-State/Milton J. Ferguson Field

Observation time: 19 min. ago

KHTS 302051Z 26011G23KT 10SM CLR 07/M06 A3013 RMK AO2 SLP201 T00671056 53025

Need help? Read our tutorial on how to read METARs or read the parsed version below.

Tri-State/Milton J. Ferguson Field (KHTS) METAR

  • Weather conditions on Wed, 30 Nov 2022 20:51:00 +0000 (19 min. ago):
  • Present conditions: Dry
  • Clouds: Clear skies
  • Visibility: 16093 meters
  • Wind: 260 degrees at 11 knots
  • Temperature: 7 celsius
  • Dew point: -6 celsius
  • Pressure: 30.13 inHg
  • Remarks: AO2 SLP201 T00671056 53025


Useful to know...

KHTS TAF

Tri-State/Milton J. Ferguson Field

KHTS 302015Z 3020/0118 23012G18KT P6SM SKC FM302200 27008KT P6SM SKC FM010500 27008KT P6SM SKC
Observation time: 55 min. ago
Need help? Read our tutorial on how to read TAFs or read the parsed version below.

Parsed version of TAF for Tri-State/Milton J. Ferguson Field (KHTS)

  • From 30 November at 20:00 UTC, to day 01 of the month at 18:00 UTC
  • Clouds: No significant changes expected
  • Wind: 230 degrees at 12
  • From day 30 of the month at 22:00 UTC
  • Clouds: No significant changes expected
  • Wind: 270 degrees at 8
  • From day 1 of the month at 05:00 UTC
  • Clouds: No significant changes expected
  • Wind: 270 degrees at 8

Airports near KHTS

KPMH Weather
Region: Portsmouth

Greater Portsmouth Regional Airport

Not found in our database